MSC Regina — 3FGF9 — position and weather

sailwx.info

Track history (hours):
 
Tides and Currents Weather Stations Pressure Air Temp Water Temp Dewpoint Dewpoint Depression Visibility Wind Speed Wind Dir Waves Ship Positions

MSC Regina

Last reported at 2014-Jul-21 21:33 UTC. Time now 2014-Jul-24 05:54 UTC.
Position N 46°36' W 071°59'.

Length 259 m; draft 11 m.

Type: Ship (hazmat cat A). MMSI: 357332000.

Date/timePositionNaut miles runAvg speedWind from/ knotsBaromVisibWave heightAir tempDewpointWater temp
2014-Jul-21 21:33N 46°36' W 071°59'1111.5
2014-Jul-21 20:33N 46°31' W 072°13'2 8.2
2014-Jul-21 20:18N 46°29' W 072°14'5 6.4
2014-Jul-21 19:33N 46°26' W 072°20'8 8.1
2014-Jul-21 18:33N 46°22' W 072°30'9 8.5
2014-Jul-21 17:34N 46°16' W 072°39'10 9.8
2014-Jul-21 16:34N 46°12' W 072°52'9 9.4
2014-Jul-21 15:33N 46°05' W 073°01'27 8.9
2014-Jul-21 12:32N 45°44' W 073°25'9 9.3
2014-Jul-21 11:33N 45°35' W 073°30'1 1.0
2014-Jul-21 10:33N 45°35' W 073°31'0 0.0
2014-Jul-21 09:33N 45°35' W 073°31'0 0.0
2014-Jul-21 08:33N 45°35' W 073°31'0 0.0
2014-Jul-21 07:33N 45°35' W 073°31'0 0.0
2014-Jul-21 06:33N 45°35' W 073°31'0 0.0
2014-Jul-21 05:33N 45°35' W 073°31'0 0.0
2014-Jul-21 04:33N 45°35' W 073°31'0 0.0
2014-Jul-21 03:33N 45°35' W 073°31'0 0.0
2014-Jul-21 02:33N 45°35' W 073°31'0 0.0
2014-Jul-21 01:33N 45°35' W 073°31'0 0.0
2014-Jul-21 00:33N 45°35' W 073°31'0 0.0
2014-Jul-20 23:33N 45°35' W 073°31'0 0.0
2014-Jul-20 22:33N 45°35' W 073°31'0 0.0
2014-Jul-20 21:33N 45°35' W 073°31'0 0.0
2014-Jul-20 20:33N 45°35' W 073°31'0 0.0
2014-Jul-20 19:33N 45°35' W 073°31'0 0.0
2014-Jul-20 18:33N 45°35' W 073°31'0 0.0
2014-Jul-20 17:33N 45°35' W 073°31'0 0.0
2014-Jul-20 16:33N 45°35' W 073°31'0 0.0
2014-Jul-20 15:33N 45°35' W 073°31'0 0.0
2014-Jul-20 14:33N 45°35' W 073°31'0 0.0
2014-Jul-20 13:33N 45°35' W 073°31'0 0.0
2014-Jul-20 12:33N 45°35' W 073°31'0 0.0
2014-Jul-20 11:33N 45°35' W 073°31'0 0.0
2014-Jul-20 10:33N 45°35' W 073°31'0 0.0
2014-Jul-20 09:33N 45°35' W 073°31'0 0.0
2014-Jul-20 08:33N 45°35' W 073°31'0 0.0
2014-Jul-20 07:33N 45°35' W 073°31'0 0.0
2014-Jul-20 06:33N 45°35' W 073°31'0 0.0
2014-Jul-20 05:33N 45°35' W 073°31'0 0.0
2014-Jul-20 04:33N 45°35' W 073°31'0 0.0
2014-Jul-20 03:33N 45°35' W 073°31'0 0.0
2014-Jul-20 02:33N 45°35' W 073°31'0 0.0
2014-Jul-20 01:33N 45°35' W 073°31'0 0.0
2014-Jul-20 00:33N 45°35' W 073°31'0 0.0
2014-Jul-19 23:34N 45°35' W 073°31'0 0.0
2014-Jul-19 22:33N 45°35' W 073°31'0 0.0
2014-Jul-19 21:33N 45°35' W 073°31'0 0.0
2014-Jul-19 20:33N 45°35' W 073°31'0 0.0
2014-Jul-19 19:33N 45°35' W 073°31'0 0.0
2014-Jul-19 18:33N 45°35' W 073°31'0 0.0
2014-Jul-19 17:33N 45°35' W 073°31'0 0.0
2014-Jul-19 16:33N 45°35' W 073°31'0 0.0
2014-Jul-19 15:33N 45°35' W 073°31'0 0.0
2014-Jul-19 14:33N 45°35' W 073°31'0 0.0
2014-Jul-19 13:33N 45°35' W 073°31'0 0.0
2014-Jul-19 12:33N 45°35' W 073°31'0 0.0
2014-Jul-19 11:33N 45°35' W 073°31'0 0.0
2014-Jul-19 10:33N 45°35' W 073°31'0 0.0
2014-Jul-19 09:33N 45°35' W 073°31'0 0.0
2014-Jul-19 08:33N 45°35' W 073°31'0 0.0
2014-Jul-19 07:33N 45°35' W 073°31'0 0.0
2014-Jul-19 06:33N 45°35' W 073°31'0 0.0
2014-Jul-19 05:33N 45°35' W 073°31'0 0.0
2014-Jul-19 04:33N 45°35' W 073°31'0 0.0
2014-Jul-19 03:33N 45°34' W 073°31'0 0.0
2014-Jul-19 02:33N 45°35' W 073°31'0 0.0
2014-Jul-19 01:33N 45°34' W 073°31'0 0.0
2014-Jul-19 00:33N 45°34' W 073°31'0 0.0
2014-Jul-18 23:33N 45°35' W 073°31'0 0.0
2014-Jul-18 22:33N 45°35' W 073°31'0 0.0
2014-Jul-18 21:33N 45°35' W 073°31'0 0.0
2014-Jul-18 20:33N 45°35' W 073°31'0 0.0
2014-Jul-18 19:33N 45°34' W 073°31'0 0.0
2014-Jul-18 18:33N 45°35' W 073°31'0 0.0
2014-Jul-18 17:33N 45°35' W 073°31'0 0.0
2014-Jul-18 16:33N 45°35' W 073°31'0 0.0
2014-Jul-18 15:33N 45°35' W 073°31'0 0.0
2014-Jul-18 14:33N 45°35' W 073°31'0 0.4
2014-Jul-18 13:33N 45°35' W 073°30'7 7.5
2014-Jul-18 12:33N 45°42' W 073°27'9 9.2
2014-Jul-18 11:33N 45°49' W 073°19'9 9.5
2014-Jul-18 10:33N 45°58' W 073°12'9 8.6
2014-Jul-18 09:33N 46°04' W 073°04'10 9.5
2014-Jul-18 08:33N 46°11' W 072°55'1110.8
2014-Jul-18 07:33N 46°16' W 072°41'  
2014-Jul-12 01:26N 38°56' W 011°56'6019.2
2014-Jul-11 22:19N 38°31' W 010°47'1519.1
2014-Jul-11 21:33N 38°25' W 010°30'  
Track history (hours):
 
Tides and Currents Weather Stations Pressure Air Temp Water Temp Dewpoint Dewpoint Depression Visibility Wind Speed Wind Dir Waves Ship Positions

MSC Regina

Last reported at 2014-Jul-21 21:33 UTC. Time now 2014-Jul-24 05:54 UTC.
Position N 46°36' W 071°59'.

Length 259 m; draft 11 m.

Type: Ship (hazmat cat A). MMSI: 357332000.

Date/timePositionNaut miles runAvg speedWind from/ knotsBaromVisibWave heightAir tempDewpointWater temp
2014-Jul-21 21:33N 46°36' W 071°59'1111.5
2014-Jul-21 20:33N 46°31' W 072°13'2 8.2
2014-Jul-21 20:18N 46°29' W 072°14'5 6.4
2014-Jul-21 19:33N 46°26' W 072°20'8 8.1
2014-Jul-21 18:33N 46°22' W 072°30'9 8.5
2014-Jul-21 17:34N 46°16' W 072°39'10 9.8
2014-Jul-21 16:34N 46°12' W 072°52'9 9.4
2014-Jul-21 15:33N 46°05' W 073°01'27 8.9
2014-Jul-21 12:32N 45°44' W 073°25'9 9.3
2014-Jul-21 11:33N 45°35' W 073°30'1 1.0
2014-Jul-21 10:33N 45°35' W 073°31'0 0.0
2014-Jul-21 09:33N 45°35' W 073°31'0 0.0
2014-Jul-21 08:33N 45°35' W 073°31'0 0.0
2014-Jul-21 07:33N 45°35' W 073°31'0 0.0
2014-Jul-21 06:33N 45°35' W 073°31'0 0.0
2014-Jul-21 05:33N 45°35' W 073°31'0 0.0
2014-Jul-21 04:33N 45°35' W 073°31'0 0.0
2014-Jul-21 03:33N 45°35' W 073°31'0 0.0
2014-Jul-21 02:33N 45°35' W 073°31'0 0.0
2014-Jul-21 01:33N 45°35' W 073°31'0 0.0
2014-Jul-21 00:33N 45°35' W 073°31'0 0.0
2014-Jul-20 23:33N 45°35' W 073°31'0 0.0
2014-Jul-20 22:33N 45°35' W 073°31'0 0.0
2014-Jul-20 21:33N 45°35' W 073°31'0 0.0
2014-Jul-20 20:33N 45°35' W 073°31'0 0.0
2014-Jul-20 19:33N 45°35' W 073°31'0 0.0
2014-Jul-20 18:33N 45°35' W 073°31'0 0.0
2014-Jul-20 17:33N 45°35' W 073°31'0 0.0
2014-Jul-20 16:33N 45°35' W 073°31'0 0.0
2014-Jul-20 15:33N 45°35' W 073°31'0 0.0
2014-Jul-20 14:33N 45°35' W 073°31'0 0.0
2014-Jul-20 13:33N 45°35' W 073°31'0 0.0
2014-Jul-20 12:33N 45°35' W 073°31'0 0.0
2014-Jul-20 11:33N 45°35' W 073°31'0 0.0
2014-Jul-20 10:33N 45°35' W 073°31'0 0.0
2014-Jul-20 09:33N 45°35' W 073°31'0 0.0
2014-Jul-20 08:33N 45°35' W 073°31'0 0.0
2014-Jul-20 07:33N 45°35' W 073°31'0 0.0
2014-Jul-20 06:33N 45°35' W 073°31'0 0.0
2014-Jul-20 05:33N 45°35' W 073°31'0 0.0
2014-Jul-20 04:33N 45°35' W 073°31'0 0.0
2014-Jul-20 03:33N 45°35' W 073°31'0 0.0
2014-Jul-20 02:33N 45°35' W 073°31'0 0.0
2014-Jul-20 01:33N 45°35' W 073°31'0 0.0
2014-Jul-20 00:33N 45°35' W 073°31'0 0.0
2014-Jul-19 23:34N 45°35' W 073°31'0 0.0
2014-Jul-19 22:33N 45°35' W 073°31'0 0.0
2014-Jul-19 21:33N 45°35' W 073°31'0 0.0
2014-Jul-19 20:33N 45°35' W 073°31'0 0.0
2014-Jul-19 19:33N 45°35' W 073°31'0 0.0
2014-Jul-19 18:33N 45°35' W 073°31'0 0.0
2014-Jul-19 17:33N 45°35' W 073°31'0 0.0
2014-Jul-19 16:33N 45°35' W 073°31'0 0.0
2014-Jul-19 15:33N 45°35' W 073°31'0 0.0
2014-Jul-19 14:33N 45°35' W 073°31'0 0.0
2014-Jul-19 13:33N 45°35' W 073°31'0 0.0
2014-Jul-19 12:33N 45°35' W 073°31'0 0.0
2014-Jul-19 11:33N 45°35' W 073°31'0 0.0
2014-Jul-19 10:33N 45°35' W 073°31'0 0.0
2014-Jul-19 09:33N 45°35' W 073°31'0 0.0
2014-Jul-19 08:33N 45°35' W 073°31'0 0.0
2014-Jul-19 07:33N 45°35' W 073°31'0 0.0
2014-Jul-19 06:33N 45°35' W 073°31'0 0.0
2014-Jul-19 05:33N 45°35' W 073°31'0 0.0
2014-Jul-19 04:33N 45°35' W 073°31'0 0.0
2014-Jul-19 03:33N 45°34' W 073°31'0 0.0
2014-Jul-19 02:33N 45°35' W 073°31'0 0.0
2014-Jul-19 01:33N 45°34' W 073°31'0 0.0
2014-Jul-19 00:33N 45°34' W 073°31'0 0.0
2014-Jul-18 23:33N 45°35' W 073°31'0 0.0
2014-Jul-18 22:33N 45°35' W 073°31'0 0.0
2014-Jul-18 21:33N 45°35' W 073°31'0 0.0
2014-Jul-18 20:33N 45°35' W 073°31'0 0.0
2014-Jul-18 19:33N 45°34' W 073°31'0 0.0
2014-Jul-18 18:33N 45°35' W 073°31'0 0.0
2014-Jul-18 17:33N 45°35' W 073°31'0 0.0
2014-Jul-18 16:33N 45°35' W 073°31'0 0.0
2014-Jul-18 15:33N 45°35' W 073°31'0 0.0
2014-Jul-18 14:33N 45°35' W 073°31'0 0.4
2014-Jul-18 13:33N 45°35' W 073°30'7 7.5
2014-Jul-18 12:33N 45°42' W 073°27'9 9.2
2014-Jul-18 11:33N 45°49' W 073°19'9 9.5
2014-Jul-18 10:33N 45°58' W 073°12'9 8.6
2014-Jul-18 09:33N 46°04' W 073°04'10 9.5
2014-Jul-18 08:33N 46°11' W 072°55'1110.8
2014-Jul-18 07:33N 46°16' W 072°41'  
2014-Jul-12 01:26N 38°56' W 011°56'6019.2
2014-Jul-11 22:19N 38°31' W 010°47'1519.1
2014-Jul-11 21:33N 38°25' W 010°30'  

Dump ship's entire track history